createdAt,value
2023-02-02T00:01:09.850Z,0.30
2023-02-02T00:04:36.157Z,0.30
2023-02-02T00:08:30.719Z,0.29
2023-02-02T00:11:54.917Z,0.30
2023-02-02T00:15:32.097Z,0.29
2023-02-02T00:19:30.876Z,0.28
2023-02-02T00:22:56.226Z,0.27
2023-02-02T00:26:32.846Z,0.24
2023-02-02T00:30:29.224Z,0.23
2023-02-02T00:34:14.071Z,0.27
2023-02-02T00:37:37.563Z,0.30
2023-02-02T00:41:16.370Z,0.25
2023-02-02T00:45:11.834Z,0.21
2023-02-02T00:48:55.733Z,0.25
2023-02-02T00:52:39.120Z,0.27
2023-02-02T00:56:04.320Z,0.34
2023-02-02T01:00:00.785Z,0.37
2023-02-02T01:03:24.835Z,0.32
2023-02-02T01:07:02.458Z,0.30
2023-02-02T01:10:40.152Z,0.31
2023-02-02T01:14:17.534Z,0.31
2023-02-02T01:17:55.799Z,0.30
2023-02-02T01:21:32.948Z,0.30
2023-02-02T01:25:31.829Z,0.29
2023-02-02T01:28:55.813Z,0.26
2023-02-02T01:32:53.855Z,0.26
2023-02-02T01:36:23.031Z,0.29
2023-02-02T01:40:14.180Z,0.31
2023-02-02T01:43:44.293Z,0.32
2023-02-02T01:47:43.227Z,0.33
2023-02-02T01:51:35.805Z,0.38
2023-02-02T01:55:22.889Z,0.41
2023-02-02T01:59:06.368Z,0.44
2023-02-02T02:02:32.206Z,0.46
2023-02-02T02:06:17.517Z,0.44
2023-02-02T02:10:05.320Z,0.46
2023-02-02T02:13:50.515Z,0.43
2023-02-02T02:17:34.838Z,0.43
2023-02-02T02:21:53.219Z,0.47
2023-02-02T02:26:14.506Z,0.50
2023-02-02T02:30:11.905Z,0.52
2023-02-02T02:33:45.427Z,0.53
2023-02-02T02:37:19.713Z,0.54
2023-02-02T02:41:21.171Z,0.58
2023-02-02T02:44:47.074Z,0.60
2023-02-02T02:48:45.349Z,0.65
2023-02-02T02:52:10.274Z,0.66
2023-02-02T02:55:59.473Z,0.67
2023-02-02T02:59:50.684Z,0.68
2023-02-02T03:03:24.918Z,0.70
2023-02-02T03:07:54.724Z,0.74
2023-02-02T03:11:37.524Z,0.80
2023-02-02T03:15:05.725Z,0.83
2023-02-02T03:18:58.434Z,0.85
2023-02-02T03:22:22.079Z,0.85
2023-02-02T03:26:19.710Z,0.87
2023-02-02T03:29:43.788Z,0.86
2023-02-02T03:33:21.904Z,0.84
2023-02-02T03:36:59.153Z,0.85
2023-02-02T03:40:37.293Z,0.88
2023-02-02T03:44:33.477Z,0.89
2023-02-02T03:47:58.384Z,0.87
2023-02-02T03:51:35.272Z,0.85
2023-02-02T03:55:32.067Z,0.87
2023-02-02T03:58:55.983Z,0.86
2023-02-02T04:02:33.885Z,0.80
2023-02-02T04:06:30.416Z,0.82
2023-02-02T04:10:13.879Z,0.83
2023-02-02T04:13:57.166Z,0.84
2023-02-02T04:17:21.247Z,0.85
2023-02-02T04:21:20.624Z,0.86
2023-02-02T04:24:44.774Z,0.89
2023-02-02T04:28:23.888Z,0.91
2023-02-02T04:32:00.234Z,0.88
2023-02-02T04:35:37.693Z,0.87
2023-02-02T04:39:15.646Z,0.87
2023-02-02T04:42:53.229Z,0.89
2023-02-02T04:46:32.198Z,0.88
2023-02-02T04:50:09.300Z,0.86
2023-02-02T04:53:46.275Z,0.83
2023-02-02T04:57:42.908Z,0.84
2023-02-02T05:01:18.527Z,0.84
2023-02-02T05:04:44.385Z,0.83
2023-02-02T05:08:42.696Z,0.83
2023-02-02T05:12:06.450Z,0.84
2023-02-02T05:15:44.171Z,0.82
2023-02-02T05:19:21.903Z,0.81
2023-02-02T05:23:18.872Z,0.82
2023-02-02T05:26:42.815Z,0.82
2023-02-02T05:30:20.516Z,0.80
2023-02-02T05:34:16.964Z,0.81
2023-02-02T05:37:43.587Z,0.84
2023-02-02T05:41:19.431Z,0.88
2023-02-02T05:45:15.604Z,0.93
2023-02-02T05:48:58.583Z,0.93
2023-02-02T05:52:43.606Z,0.89
2023-02-02T05:56:07.473Z,0.88
2023-02-02T06:00:06.056Z,0.88
2023-02-02T06:03:36.367Z,0.88
2023-02-02T06:07:35.469Z,0.85
2023-02-02T06:11:18.335Z,0.86
2023-02-02T06:15:01.180Z,0.85
2023-02-02T06:18:44.715Z,0.81
2023-02-02T06:22:08.573Z,0.77
2023-02-02T06:26:07.635Z,0.74
2023-02-02T06:29:50.615Z,0.75
2023-02-02T06:33:14.752Z,0.76
2023-02-02T06:36:52.450Z,0.77
2023-02-02T06:40:48.880Z,0.73
2023-02-02T06:44:31.638Z,0.76
2023-02-02T06:48:00.744Z,0.72
2023-02-02T06:51:33.303Z,0.70
2023-02-02T06:55:10.591Z,0.63
2023-02-02T06:58:48.462Z,0.55
2023-02-02T07:02:46.323Z,0.53
2023-02-02T07:06:22.810Z,0.49
2023-02-02T07:10:07.311Z,0.53
2023-02-02T07:13:31.777Z,0.49
2023-02-02T07:17:09.149Z,0.48
2023-02-02T07:20:46.869Z,0.47
2023-02-02T07:24:43.259Z,0.44
2023-02-02T07:28:27.077Z,0.41
2023-02-02T07:31:51.030Z,0.39
2023-02-02T07:35:28.544Z,0.39
2023-02-02T07:39:25.079Z,0.39
2023-02-02T07:42:49.388Z,0.42
2023-02-02T07:46:46.711Z,0.43
2023-02-02T07:50:10.875Z,0.48
2023-02-02T07:53:50.930Z,0.45
2023-02-02T07:57:25.873Z,0.47
2023-02-02T08:01:25.342Z,0.47
2023-02-02T08:05:09.312Z,0.51
2023-02-02T08:08:33.435Z,0.52
2023-02-02T08:12:10.804Z,0.52
2023-02-02T08:16:08.440Z,0.56
2023-02-02T08:19:32.775Z,0.55
2023-02-02T08:23:30.700Z,0.54
2023-02-02T08:26:54.872Z,0.51
2023-02-02T08:30:32.563Z,0.53
2023-02-02T08:34:12.211Z,0.52
2023-02-02T08:38:06.962Z,0.58
2023-02-02T08:41:31.207Z,0.56
2023-02-02T08:46:01.857Z,0.60
2023-02-02T08:48:53.327Z,0.62
2023-02-02T08:52:30.863Z,0.61
2023-02-02T08:56:14.718Z,0.61
2023-02-02T08:59:46.264Z,0.62
2023-02-02T09:03:44.083Z,0.63
2023-02-02T09:07:08.091Z,0.62
2023-02-02T09:11:10.878Z,0.62
2023-02-02T09:14:35.142Z,0.55
2023-02-02T09:18:13.261Z,0.53
2023-02-02T09:21:50.868Z,0.54
2023-02-02T09:25:28.733Z,0.52
2023-02-02T09:29:08.496Z,0.53
2023-02-02T09:32:45.590Z,0.49
2023-02-02T09:36:23.665Z,0.51
2023-02-02T09:40:20.304Z,0.50
2023-02-02T09:44:01.828Z,0.56
2023-02-02T09:47:53.491Z,0.53
2023-02-02T09:51:23.469Z,0.61
2023-02-02T09:55:03.443Z,0.71
2023-02-02T09:58:55.557Z,0.80
2023-02-02T10:02:45.558Z,0.89
2023-02-02T10:06:31.313Z,0.98
2023-02-02T10:10:02.615Z,1.02
2023-02-02T10:13:57.253Z,1.09
2023-02-02T10:17:21.082Z,1.11
2023-02-02T10:21:48.857Z,1.18
2023-02-02T10:25:17.095Z,1.20
2023-02-02T10:29:23.961Z,1.27
2023-02-02T10:33:20.105Z,1.32
2023-02-02T10:37:22.959Z,1.35
2023-02-02T10:41:29.636Z,1.38
2023-02-02T10:45:00.348Z,1.37
2023-02-02T10:48:36.359Z,1.37
2023-02-02T10:52:15.478Z,1.37
2023-02-02T10:55:56.231Z,1.37
2023-02-02T10:59:30.840Z,1.40
2023-02-02T11:03:26.745Z,1.42
2023-02-02T11:06:51.024Z,1.42
2023-02-02T11:10:52.431Z,1.41
2023-02-02T11:14:22.215Z,1.40
2023-02-02T11:17:54.956Z,1.39
2023-02-02T11:21:35.030Z,1.36
2023-02-02T11:25:37.223Z,1.36
2023-02-02T11:29:38.760Z,1.36
2023-02-02T11:33:22.120Z,1.38
2023-02-02T11:37:02.055Z,1.34
2023-02-02T11:41:00.282Z,1.34
2023-02-02T11:45:06.188Z,1.39
2023-02-02T11:49:00.516Z,1.39
2023-02-02T11:52:45.657Z,1.38
2023-02-02T11:56:19.837Z,1.33
2023-02-02T11:59:50.042Z,1.35
2023-02-02T12:03:50.423Z,1.41
2023-02-02T12:07:35.360Z,1.46
2023-02-02T12:11:03.168Z,1.47
2023-02-02T12:15:28.443Z,1.55
2023-02-02T12:18:55.766Z,1.59
2023-02-02T12:22:45.454Z,1.54
2023-02-02T12:26:31.937Z,1.59
2023-02-02T12:30:15.104Z,1.56
2023-02-02T12:34:28.801Z,1.61
2023-02-02T12:38:28.111Z,1.65
2023-02-02T12:42:17.584Z,1.64
2023-02-02T12:46:38.428Z,1.68
2023-02-02T12:50:21.161Z,1.71
2023-02-02T12:54:34.189Z,1.72
2023-02-02T12:58:23.439Z,1.75
2023-02-02T13:02:15.919Z,1.72
2023-02-02T13:06:37.117Z,1.75
2023-02-02T13:10:09.295Z,1.75
2023-02-02T13:13:39.756Z,1.78
2023-02-02T13:17:33.888Z,1.75
2023-02-02T13:21:11.170Z,1.77
2023-02-02T13:24:40.496Z,1.76
2023-02-02T13:28:54.523Z,1.73
2023-02-02T13:32:42.163Z,1.74
2023-02-02T13:36:35.466Z,1.74
2023-02-02T13:40:35.880Z,1.80
2023-02-02T13:44:32.037Z,1.83
2023-02-02T13:48:04.831Z,1.94
2023-02-02T13:52:12.176Z,1.99
2023-02-02T13:56:07.249Z,2.07
2023-02-02T14:00:23.717Z,2.15
2023-02-02T14:03:54.454Z,2.11
2023-02-02T14:07:47.203Z,2.11
2023-02-02T14:11:37.296Z,2.06
2023-02-02T14:15:37.494Z,2.05
2023-02-02T14:19:06.612Z,1.99
2023-02-02T14:22:42.744Z,1.97
2023-02-02T14:26:45.833Z,1.92
2023-02-02T14:30:25.019Z,1.88
2023-02-02T14:34:24.546Z,1.86
2023-02-02T14:38:28.912Z,1.79
2023-02-02T14:42:40.558Z,1.78
2023-02-02T14:46:35.742Z,1.75
2023-02-02T14:50:27.148Z,1.71
2023-02-02T14:54:23.687Z,1.65
2023-02-02T14:58:07.206Z,1.67
2023-02-02T15:02:05.907Z,1.68
2023-02-02T15:05:31.999Z,1.61
2023-02-02T15:09:35.919Z,1.60
2023-02-02T15:13:07.238Z,1.56
2023-02-02T15:16:40.122Z,1.50
2023-02-02T15:20:58.516Z,1.51
2023-02-02T15:24:45.052Z,1.49
2023-02-02T15:28:29.810Z,1.49
2023-02-02T15:31:56.303Z,1.48
2023-02-02T15:35:33.173Z,1.47
2023-02-02T15:39:33.209Z,1.46
2023-02-02T15:43:01.880Z,1.46
2023-02-02T15:46:35.960Z,1.39
2023-02-02T15:50:32.057Z,1.35
2023-02-02T15:53:56.039Z,1.35
2023-02-02T15:57:36.145Z,1.35
2023-02-02T16:01:43.564Z,1.32
2023-02-02T16:05:29.136Z,1.26
2023-02-02T16:09:30.292Z,1.26
2023-02-02T16:13:27.903Z,1.27
2023-02-02T16:17:20.951Z,1.22
2023-02-02T16:20:47.283Z,1.18
2023-02-02T16:24:48.604Z,1.18
2023-02-02T16:28:31.937Z,1.14
2023-02-02T16:32:28.520Z,1.14
2023-02-02T16:36:26.246Z,1.12
2023-02-02T16:39:53.052Z,1.08
2023-02-02T16:43:29.791Z,1.09
2023-02-02T16:47:25.083Z,1.04
2023-02-02T16:51:25.741Z,1.04
2023-02-02T16:55:16.681Z,1.07
2023-02-02T16:58:47.276Z,1.07
2023-02-02T17:02:29.442Z,1.05
2023-02-02T17:06:14.610Z,1.05
2023-02-02T17:09:43.515Z,1.01
2023-02-02T17:13:31.418Z,0.95
2023-02-02T17:17:15.169Z,0.94
2023-02-02T17:20:44.764Z,0.90
2023-02-02T17:24:17.818Z,0.87
2023-02-02T17:27:56.990Z,0.88
2023-02-02T17:31:32.763Z,0.84
2023-02-02T17:35:19.589Z,0.79
2023-02-02T17:38:48.947Z,0.77
2023-02-02T17:42:28.229Z,0.73
2023-02-02T17:46:04.447Z,0.69
2023-02-02T17:49:59.794Z,0.69
2023-02-02T17:53:43.938Z,0.67
2023-02-02T17:57:07.652Z,0.66
2023-02-02T18:01:04.805Z,0.65
2023-02-02T18:04:29.373Z,0.65
2023-02-02T18:08:07.230Z,0.63
2023-02-02T18:11:46.101Z,0.62
2023-02-02T18:15:42.109Z,0.62
2023-02-02T18:19:25.118Z,0.60
2023-02-02T18:22:51.961Z,0.62
2023-02-02T18:26:27.526Z,0.59
2023-02-02T18:30:05.753Z,0.54
2023-02-02T18:34:00.986Z,0.55
2023-02-02T18:37:25.976Z,0.56
2023-02-02T18:41:03.646Z,0.54
2023-02-02T18:44:40.810Z,0.54
2023-02-02T18:48:19.771Z,0.53
2023-02-02T18:52:15.143Z,0.53
2023-02-02T18:55:39.294Z,0.49
2023-02-02T18:59:17.656Z,0.47
2023-02-02T19:02:54.974Z,0.45
2023-02-02T19:07:10.111Z,0.45
2023-02-02T19:10:34.462Z,0.46
2023-02-02T19:14:36.080Z,0.42
2023-02-02T19:18:00.653Z,0.38
2023-02-02T19:21:58.974Z,0.34
2023-02-02T19:25:22.810Z,0.15
2023-02-02T19:29:08.569Z,-0.10
2023-02-02T19:32:38.739Z,-0.26
2023-02-02T19:36:17.877Z,-0.33
2023-02-02T19:40:07.353Z,-0.37
2023-02-02T19:44:00.815Z,-0.35
2023-02-02T19:47:44.285Z,-0.31
2023-02-02T19:51:42.635Z,-0.30
2023-02-02T19:55:35.035Z,-0.30
2023-02-02T19:59:00.211Z,-0.32
2023-02-02T20:02:50.877Z,-0.35
2023-02-02T20:06:38.726Z,-0.33
2023-02-02T20:10:35.240Z,-0.33
2023-02-02T20:14:03.065Z,-0.34
2023-02-02T20:17:39.323Z,-0.35
2023-02-02T20:21:38.377Z,-0.34
2023-02-02T20:25:22.394Z,-0.31
2023-02-02T20:28:47.585Z,-0.29
2023-02-02T20:32:35.795Z,-0.29
2023-02-02T20:36:37.129Z,-0.28
2023-02-02T20:40:21.329Z,-0.25
2023-02-02T20:44:05.522Z,-0.23
2023-02-02T20:47:49.816Z,-0.16
2023-02-02T20:51:15.802Z,-0.10
2023-02-02T20:54:52.499Z,-0.08
2023-02-02T20:58:48.711Z,-0.08
2023-02-02T21:02:31.727Z,-0.07
2023-02-02T21:05:56.421Z,-0.10
2023-02-02T21:09:36.715Z,-0.11
2023-02-02T21:13:30.857Z,-0.16
2023-02-02T21:17:05.361Z,-0.17
2023-02-02T21:20:52.669Z,-0.17
2023-02-02T21:24:17.421Z,-0.18
2023-02-02T21:27:55.372Z,-0.22
2023-02-02T21:31:35.162Z,-0.19
2023-02-02T21:35:10.340Z,-0.18
2023-02-02T21:39:26.791Z,-0.16
2023-02-02T21:42:50.831Z,-0.16
2023-02-02T21:46:35.197Z,-0.18
2023-02-02T21:50:23.437Z,-0.18
2023-02-02T21:53:47.647Z,-0.20
2023-02-02T21:57:35.438Z,-0.24
2023-02-02T22:01:16.982Z,-0.25
2023-02-02T22:04:41.612Z,-0.22
2023-02-02T22:08:25.547Z,-0.24
2023-02-02T22:12:22.427Z,-0.22
2023-02-02T22:16:14.928Z,-0.20
2023-02-02T22:20:10.585Z,-0.20
2023-02-02T22:23:34.693Z,-0.22
2023-02-02T22:27:19.974Z,-0.24
2023-02-02T22:30:55.806Z,-0.28
2023-02-02T22:34:27.557Z,-0.29
2023-02-02T22:38:06.368Z,-0.33
2023-02-02T22:42:01.885Z,-0.36
2023-02-02T22:45:46.001Z,-0.38
2023-02-02T22:49:10.069Z,-0.48
2023-02-02T22:53:06.483Z,-0.51
2023-02-02T22:56:30.268Z,-0.54
2023-02-02T23:00:29.046Z,-0.57
2023-02-02T23:04:12.737Z,-0.58
2023-02-02T23:07:36.312Z,-0.63
2023-02-02T23:11:14.265Z,-0.65
2023-02-02T23:15:11.621Z,-0.65
2023-02-02T23:18:54.889Z,-0.65
2023-02-02T23:22:37.793Z,-0.61
2023-02-02T23:26:22.839Z,-0.59
2023-02-02T23:29:46.706Z,-0.59
2023-02-02T23:33:25.059Z,-0.59
2023-02-02T23:37:04.760Z,-0.59
2023-02-02T23:40:39.781Z,-0.57
2023-02-02T23:44:36.710Z,-0.57
2023-02-02T23:48:00.883Z,-0.58
2023-02-02T23:51:38.354Z,-0.58
2023-02-02T23:55:35.011Z,-0.52
2023-02-02T23:58:58.689Z,-0.47
